sensor_id;sensor_type;location;lat;lon;timestamp;temperature;humidity
14749;DHT22;7466;53.574;9.976;2022-07-06T00:00:06;15.00;99.90
14749;DHT22;7466;53.574;9.976;2022-07-06T00:02:36;15.00;99.90
14749;DHT22;7466;53.574;9.976;2022-07-06T00:05:03;15.00;99.90
14749;DHT22;7466;53.574;9.976;2022-07-06T00:07:30;15.00;99.80
14749;DHT22;7466;53.574;9.976;2022-07-06T00:09:58;15.00;99.90
14749;DHT22;7466;53.574;9.976;2022-07-06T00:12:25;15.00;99.70
14749;DHT22;7466;53.574;9.976;2022-07-06T00:14:52;15.00;98.10
14749;DHT22;7466;53.574;9.976;2022-07-06T00:17:20;15.00;95.60
14749;DHT22;7466;53.574;9.976;2022-07-06T00:19:47;15.00;94.60
14749;DHT22;7466;53.574;9.976;2022-07-06T00:22:13;15.00;94.00
14749;DHT22;7466;53.574;9.976;2022-07-06T00:24:40;15.00;94.40
14749;DHT22;7466;53.574;9.976;2022-07-06T00:27:08;15.00;95.20
14749;DHT22;7466;53.574;9.976;2022-07-06T00:29:35;15.00;99.90
14749;DHT22;7466;53.574;9.976;2022-07-06T00:32:03;14.90;99.90
14749;DHT22;7466;53.574;9.976;2022-07-06T00:34:29;14.90;99.90
14749;DHT22;7466;53.574;9.976;2022-07-06T00:36:56;14.90;99.90
14749;DHT22;7466;53.574;9.976;2022-07-06T00:39:23;14.90;99.90
14749;DHT22;7466;53.574;9.976;2022-07-06T00:41:54;14.80;99.90
14749;DHT22;7466;53.574;9.976;2022-07-06T00:44:23;14.80;99.90
14749;DHT22;7466;53.574;9.976;2022-07-06T00:46:53;14.90;99.90
14749;DHT22;7466;53.574;9.976;2022-07-06T00:49:19;14.90;99.90
14749;DHT22;7466;53.574;9.976;2022-07-06T00:52:04;14.90;99.90
14749;DHT22;7466;53.574;9.976;2022-07-06T00:54:32;14.80;99.90
14749;DHT22;7466;53.574;9.976;2022-07-06T00:56:59;14.90;99.90
14749;DHT22;7466;53.574;9.976;2022-07-06T00:59:27;14.90;99.90
14749;DHT22;7466;53.574;9.976;2022-07-06T01:01:54;14.80;99.90
14749;DHT22;7466;53.574;9.976;2022-07-06T01:04:21;14.80;99.90
14749;DHT22;7466;53.574;9.976;2022-07-06T01:06:48;14.80;99.90
14749;DHT22;7466;53.574;9.976;2022-07-06T01:09:15;14.80;99.90
14749;DHT22;7466;53.574;9.976;2022-07-06T01:11:43;14.80;99.90
14749;DHT22;7466;53.574;9.976;2022-07-06T01:14:11;14.80;99.90
14749;DHT22;7466;53.574;9.976;2022-07-06T01:16:40;14.80;99.90
14749;DHT22;7466;53.574;9.976;2022-07-06T01:19:06;14.80;99.90
14749;DHT22;7466;53.574;9.976;2022-07-06T01:21:37;14.80;99.90
14749;DHT22;7466;53.574;9.976;2022-07-06T01:24:05;14.80;99.90
14749;DHT22;7466;53.574;9.976;2022-07-06T01:26:32;14.80;99.90
14749;DHT22;7466;53.574;9.976;2022-07-06T01:28:59;14.80;99.90
14749;DHT22;7466;53.574;9.976;2022-07-06T01:31:26;14.80;99.90
14749;DHT22;7466;53.574;9.976;2022-07-06T01:33:55;14.80;99.90
14749;DHT22;7466;53.574;9.976;2022-07-06T01:36:22;14.70;99.90
14749;DHT22;7466;53.574;9.976;2022-07-06T01:38:52;14.70;99.90
14749;DHT22;7466;53.574;9.976;2022-07-06T01:41:19;14.70;99.90
14749;DHT22;7466;53.574;9.976;2022-07-06T01:43:47;14.70;99.90
14749;DHT22;7466;53.574;9.976;2022-07-06T01:46:14;14.70;99.90
14749;DHT22;7466;53.574;9.976;2022-07-06T01:48:42;14.70;99.90
14749;DHT22;7466;53.574;9.976;2022-07-06T01:51:09;14.60;99.90
14749;DHT22;7466;53.574;9.976;2022-07-06T01:53:37;14.70;99.90
14749;DHT22;7466;53.574;9.976;2022-07-06T01:56:06;14.60;99.90
14749;DHT22;7466;53.574;9.976;2022-07-06T01:58:33;14.60;99.90
14749;DHT22;7466;53.574;9.976;2022-07-06T02:01:00;14.60;99.90
14749;DHT22;7466;53.574;9.976;2022-07-06T02:03:27;14.60;99.90
14749;DHT22;7466;53.574;9.976;2022-07-06T02:05:53;14.60;99.90
14749;DHT22;7466;53.574;9.976;2022-07-06T02:08:20;14.60;99.90
14749;DHT22;7466;53.574;9.976;2022-07-06T02:10:47;14.70;99.90
14749;DHT22;7466;53.574;9.976;2022-07-06T02:13:15;14.70;99.90
14749;DHT22;7466;53.574;9.976;2022-07-06T02:15:42;14.70;99.90
14749;DHT22;7466;53.574;9.976;2022-07-06T02:18:09;14.70;99.90
14749;DHT22;7466;53.574;9.976;2022-07-06T02:20:36;14.70;99.90
14749;DHT22;7466;53.574;9.976;2022-07-06T02:23:03;14.70;99.90
14749;DHT22;7466;53.574;9.976;2022-07-06T02:25:30;14.70;99.90
14749;DHT22;7466;53.574;9.976;2022-07-06T02:27:57;14.70;99.90
14749;DHT22;7466;53.574;9.976;2022-07-06T02:30:25;14.70;99.90
14749;DHT22;7466;53.574;9.976;2022-07-06T02:32:52;14.70;99.90
14749;DHT22;7466;53.574;9.976;2022-07-06T02:35:19;14.70;99.90
14749;DHT22;7466;53.574;9.976;2022-07-06T02:37:46;14.70;99.90
14749;DHT22;7466;53.574;9.976;2022-07-06T02:40:13;14.60;99.90
14749;DHT22;7466;53.574;9.976;2022-07-06T02:42:40;14.60;99.90
14749;DHT22;7466;53.574;9.976;2022-07-06T02:45:09;14.60;99.90
14749;DHT22;7466;53.574;9.976;2022-07-06T02:47:37;14.60;99.90
14749;DHT22;7466;53.574;9.976;2022-07-06T02:50:05;14.60;99.90
14749;DHT22;7466;53.574;9.976;2022-07-06T02:52:32;14.50;99.90
14749;DHT22;7466;53.574;9.976;2022-07-06T02:54:59;14.50;99.90
14749;DHT22;7466;53.574;9.976;2022-07-06T02:57:26;14.40;99.90
14749;DHT22;7466;53.574;9.976;2022-07-06T02:59:52;14.40;99.90
14749;DHT22;7466;53.574;9.976;2022-07-06T03:02:19;14.40;99.90
14749;DHT22;7466;53.574;9.976;2022-07-06T03:04:47;14.30;99.90
14749;DHT22;7466;53.574;9.976;2022-07-06T03:07:14;14.20;99.90
14749;DHT22;7466;53.574;9.976;2022-07-06T03:09:41;14.20;99.90
14749;DHT22;7466;53.574;9.976;2022-07-06T03:12:08;14.20;99.90
14749;DHT22;7466;53.574;9.976;2022-07-06T03:14:35;14.10;99.90
14749;DHT22;7466;53.574;9.976;2022-07-06T03:17:02;14.00;99.90
14749;DHT22;7466;53.574;9.976;2022-07-06T03:19:29;14.10;99.90
14749;DHT22;7466;53.574;9.976;2022-07-06T03:21:57;14.10;99.90
14749;DHT22;7466;53.574;9.976;2022-07-06T03:24:24;14.10;99.90
14749;DHT22;7466;53.574;9.976;2022-07-06T03:26:51;14.10;99.90
14749;DHT22;7466;53.574;9.976;2022-07-06T03:29:18;14.10;99.90
14749;DHT22;7466;53.574;9.976;2022-07-06T03:31:46;14.20;99.90
14749;DHT22;7466;53.574;9.976;2022-07-06T03:34:13;14.20;99.90
14749;DHT22;7466;53.574;9.976;2022-07-06T03:36:39;14.10;99.90
14749;DHT22;7466;53.574;9.976;2022-07-06T03:39:08;14.20;99.90
14749;DHT22;7466;53.574;9.976;2022-07-06T03:41:34;14.20;99.90
14749;DHT22;7466;53.574;9.976;2022-07-06T03:44:01;14.20;99.90
14749;DHT22;7466;53.574;9.976;2022-07-06T03:46:28;14.20;99.90
14749;DHT22;7466;53.574;9.976;2022-07-06T03:48:55;14.30;99.90
14749;DHT22;7466;53.574;9.976;2022-07-06T03:51:22;14.30;99.90
14749;DHT22;7466;53.574;9.976;2022-07-06T03:53:49;14.20;99.90
14749;DHT22;7466;53.574;9.976;2022-07-06T03:56:17;14.20;99.90
14749;DHT22;7466;53.574;9.976;2022-07-06T03:58:59;14.20;99.90
14749;DHT22;7466;53.574;9.976;2022-07-06T04:01:27;14.30;99.90
14749;DHT22;7466;53.574;9.976;2022-07-06T04:03:54;14.20;99.90
14749;DHT22;7466;53.574;9.976;2022-07-06T04:06:21;14.20;99.90
14749;DHT22;7466;53.574;9.976;2022-07-06T04:08:47;14.20;99.90
14749;DHT22;7466;53.574;9.976;2022-07-06T04:11:14;14.20;99.90
14749;DHT22;7466;53.574;9.976;2022-07-06T04:13:42;14.20;99.90
14749;DHT22;7466;53.574;9.976;2022-07-06T04:16:09;14.20;99.90
14749;DHT22;7466;53.574;9.976;2022-07-06T04:18:36;14.20;99.90
14749;DHT22;7466;53.574;9.976;2022-07-06T04:21:03;14.10;99.90
14749;DHT22;7466;53.574;9.976;2022-07-06T04:23:30;14.10;99.90
14749;DHT22;7466;53.574;9.976;2022-07-06T04:25:57;14.20;99.90
14749;DHT22;7466;53.574;9.976;2022-07-06T04:28:23;14.20;99.90
14749;DHT22;7466;53.574;9.976;2022-07-06T04:30:52;14.20;99.90
14749;DHT22;7466;53.574;9.976;2022-07-06T04:33:18;14.20;99.90
14749;DHT22;7466;53.574;9.976;2022-07-06T04:35:45;14.20;99.90
14749;DHT22;7466;53.574;9.976;2022-07-06T04:38:12;14.20;99.90
14749;DHT22;7466;53.574;9.976;2022-07-06T04:40:39;14.30;99.90
14749;DHT22;7466;53.574;9.976;2022-07-06T04:43:06;14.30;99.90
14749;DHT22;7466;53.574;9.976;2022-07-06T04:45:33;14.40;99.90
14749;DHT22;7466;53.574;9.976;2022-07-06T04:48:01;14.40;99.90
14749;DHT22;7466;53.574;9.976;2022-07-06T04:50:28;14.50;99.90
14749;DHT22;7466;53.574;9.976;2022-07-06T04:52:55;14.50;99.90
14749;DHT22;7466;53.574;9.976;2022-07-06T04:55:22;14.60;99.90
14749;DHT22;7466;53.574;9.976;2022-07-06T04:57:49;14.60;99.90
14749;DHT22;7466;53.574;9.976;2022-07-06T05:00:17;14.60;99.90
14749;DHT22;7466;53.574;9.976;2022-07-06T05:02:44;14.60;99.90
14749;DHT22;7466;53.574;9.976;2022-07-06T05:05:12;14.60;99.90
14749;DHT22;7466;53.574;9.976;2022-07-06T05:07:39;14.70;99.90
14749;DHT22;7466;53.574;9.976;2022-07-06T05:10:07;14.70;99.90
14749;DHT22;7466;53.574;9.976;2022-07-06T05:12:34;14.70;99.90
14749;DHT22;7466;53.574;9.976;2022-07-06T05:15:01;14.70;99.90
14749;DHT22;7466;53.574;9.976;2022-07-06T05:17:28;14.80;99.90
14749;DHT22;7466;53.574;9.976;2022-07-06T05:19:55;14.80;99.90
14749;DHT22;7466;53.574;9.976;2022-07-06T05:22:23;14.80;99.90
14749;DHT22;7466;53.574;9.976;2022-07-06T05:24:50;14.80;99.90
14749;DHT22;7466;53.574;9.976;2022-07-06T05:27:17;14.80;99.90
14749;DHT22;7466;53.574;9.976;2022-07-06T05:29:44;14.80;99.90
14749;DHT22;7466;53.574;9.976;2022-07-06T05:32:11;14.80;99.90
14749;DHT22;7466;53.574;9.976;2022-07-06T05:34:38;14.80;99.90
14749;DHT22;7466;53.574;9.976;2022-07-06T05:37:05;14.80;99.90
14749;DHT22;7466;53.574;9.976;2022-07-06T05:39:33;14.80;99.90
14749;DHT22;7466;53.574;9.976;2022-07-06T05:42:00;14.80;99.90
14749;DHT22;7466;53.574;9.976;2022-07-06T05:44:27;14.80;99.90
14749;DHT22;7466;53.574;9.976;2022-07-06T05:46:54;14.90;99.90
14749;DHT22;7466;53.574;9.976;2022-07-06T05:49:40;15.00;99.90
14749;DHT22;7466;53.574;9.976;2022-07-06T05:52:24;14.90;99.90
14749;DHT22;7466;53.574;9.976;2022-07-06T05:54:53;14.90;99.90
14749;DHT22;7466;53.574;9.976;2022-07-06T05:57:19;15.00;99.90
14749;DHT22;7466;53.574;9.976;2022-07-06T05:59:46;15.00;99.90
14749;DHT22;7466;53.574;9.976;2022-07-06T06:02:13;15.10;99.90
14749;DHT22;7466;53.574;9.976;2022-07-06T06:04:40;15.10;99.90
14749;DHT22;7466;53.574;9.976;2022-07-06T06:07:07;15.10;99.90
14749;DHT22;7466;53.574;9.976;2022-07-06T06:09:34;15.20;99.90
14749;DHT22;7466;53.574;9.976;2022-07-06T06:12:02;15.20;99.90
14749;DHT22;7466;53.574;9.976;2022-07-06T06:14:29;15.30;99.90
14749;DHT22;7466;53.574;9.976;2022-07-06T06:16:56;15.20;99.90
14749;DHT22;7466;53.574;9.976;2022-07-06T06:19:23;15.30;99.90
14749;DHT22;7466;53.574;9.976;2022-07-06T06:21:49;15.10;99.90
14749;DHT22;7466;53.574;9.976;2022-07-06T06:24:17;15.00;99.90
14749;DHT22;7466;53.574;9.976;2022-07-06T06:26:44;14.90;99.90
14749;DHT22;7466;53.574;9.976;2022-07-06T06:29:12;14.80;99.90
14749;DHT22;7466;53.574;9.976;2022-07-06T06:31:39;14.70;99.90
14749;DHT22;7466;53.574;9.976;2022-07-06T06:34:06;14.80;99.90
14749;DHT22;7466;53.574;9.976;2022-07-06T06:36:32;14.80;99.90
14749;DHT22;7466;53.574;9.976;2022-07-06T06:38:59;14.90;99.90
14749;DHT22;7466;53.574;9.976;2022-07-06T06:41:27;15.00;99.90
14749;DHT22;7466;53.574;9.976;2022-07-06T06:43:54;15.10;99.90
14749;DHT22;7466;53.574;9.976;2022-07-06T06:46:22;15.30;99.90
14749;DHT22;7466;53.574;9.976;2022-07-06T06:48:49;15.40;99.90
14749;DHT22;7466;53.574;9.976;2022-07-06T06:51:16;15.50;99.90
14749;DHT22;7466;53.574;9.976;2022-07-06T06:53:42;15.50;99.90
14749;DHT22;7466;53.574;9.976;2022-07-06T06:56:09;15.60;99.90
14749;DHT22;7466;53.574;9.976;2022-07-06T06:58:36;15.50;99.90
14749;DHT22;7466;53.574;9.976;2022-07-06T07:01:03;15.60;99.90
14749;DHT22;7466;53.574;9.976;2022-07-06T07:03:32;15.60;99.90
14749;DHT22;7466;53.574;9.976;2022-07-06T07:05:58;15.60;99.90
14749;DHT22;7466;53.574;9.976;2022-07-06T07:08:26;15.80;99.90
14749;DHT22;7466;53.574;9.976;2022-07-06T07:10:53;15.90;99.90
14749;DHT22;7466;53.574;9.976;2022-07-06T07:13:19;16.00;99.90
14749;DHT22;7466;53.574;9.976;2022-07-06T07:15:46;16.20;99.90
14749;DHT22;7466;53.574;9.976;2022-07-06T07:18:13;16.40;99.90
14749;DHT22;7466;53.574;9.976;2022-07-06T07:20:41;16.40;99.20
14749;DHT22;7466;53.574;9.976;2022-07-06T07:23:08;16.70;80.20
14749;DHT22;7466;53.574;9.976;2022-07-06T07:25:35;16.90;45.80
14749;DHT22;7466;53.574;9.976;2022-07-06T07:28:04;16.50;5.30
14749;DHT22;7466;53.574;9.976;2022-07-06T07:30:31;16.60;19.50
14749;DHT22;7466;53.574;9.976;2022-07-06T07:32:58;16.60;26.50
14749;DHT22;7466;53.574;9.976;2022-07-06T07:35:26;16.60;10.60
14749;DHT22;7466;53.574;9.976;2022-07-06T07:37:54;16.40;10.60
14749;DHT22;7466;53.574;9.976;2022-07-06T07:40:21;16.20;12.20
14749;DHT22;7466;53.574;9.976;2022-07-06T07:42:48;15.90;1.00
14749;DHT22;7466;53.574;9.976;2022-07-06T07:45:15;16.00;1.00
14749;DHT22;7466;53.574;9.976;2022-07-06T07:47:42;15.90;1.00
14749;DHT22;7466;53.574;9.976;2022-07-06T07:50:09;15.90;1.00
14749;DHT22;7466;53.574;9.976;2022-07-06T07:52:36;15.90;1.00
14749;DHT22;7466;53.574;9.976;2022-07-06T07:55:06;15.80;1.00
14749;DHT22;7466;53.574;9.976;2022-07-06T07:57:33;15.90;1.00
14749;DHT22;7466;53.574;9.976;2022-07-06T08:00:04;15.90;1.00
14749;DHT22;7466;53.574;9.976;2022-07-06T08:02:31;15.90;23.10
14749;DHT22;7466;53.574;9.976;2022-07-06T08:04:58;16.00;46.20
14749;DHT22;7466;53.574;9.976;2022-07-06T08:07:25;15.90;53.40
14749;DHT22;7466;53.574;9.976;2022-07-06T08:09:52;15.70;35.00
14749;DHT22;7466;53.574;9.976;2022-07-06T08:12:20;15.90;51.60
14749;DHT22;7466;53.574;9.976;2022-07-06T08:14:47;16.20;19.00
14749;DHT22;7466;53.574;9.976;2022-07-06T08:17:16;16.20;11.50
14749;DHT22;7466;53.574;9.976;2022-07-06T08:19:43;16.40;1.00
14749;DHT22;7466;53.574;9.976;2022-07-06T08:22:10;16.40;1.00
14749;DHT22;7466;53.574;9.976;2022-07-06T08:24:36;16.10;1.00
14749;DHT22;7466;53.574;9.976;2022-07-06T08:27:04;15.90;24.20
14749;DHT22;7466;53.574;9.976;2022-07-06T08:29:32;15.70;40.20
14749;DHT22;7466;53.574;9.976;2022-07-06T08:31:58;15.70;60.30
14749;DHT22;7466;53.574;9.976;2022-07-06T08:34:25;15.70;95.40
14749;DHT22;7466;53.574;9.976;2022-07-06T08:36:52;15.80;99.90
14749;DHT22;7466;53.574;9.976;2022-07-06T08:39:19;15.90;99.90
14749;DHT22;7466;53.574;9.976;2022-07-06T08:41:47;15.90;99.90
14749;DHT22;7466;53.574;9.976;2022-07-06T08:44:14;15.90;99.90
14749;DHT22;7466;53.574;9.976;2022-07-06T08:46:43;15.90;98.00
14749;DHT22;7466;53.574;9.976;2022-07-06T08:49:13;15.90;55.10
14749;DHT22;7466;53.574;9.976;2022-07-06T08:51:41;16.10;39.70
14749;DHT22;7466;53.574;9.976;2022-07-06T08:54:08;16.20;20.60
14749;DHT22;7466;53.574;9.976;2022-07-06T08:56:35;16.40;43.80
14749;DHT22;7466;53.574;9.976;2022-07-06T08:59:04;16.60;1.50
14749;DHT22;7466;53.574;9.976;2022-07-06T09:01:33;16.60;4.60
14749;DHT22;7466;53.574;9.976;2022-07-06T09:04:05;16.80;5.30
14749;DHT22;7466;53.574;9.976;2022-07-06T09:06:33;17.00;1.00
14749;DHT22;7466;53.574;9.976;2022-07-06T09:09:03;17.30;1.00
14749;DHT22;7466;53.574;9.976;2022-07-06T09:11:31;17.10;1.00
14749;DHT22;7466;53.574;9.976;2022-07-06T09:13:58;17.40;1.00
14749;DHT22;7466;53.574;9.976;2022-07-06T09:16:27;16.90;1.00
14749;DHT22;7466;53.574;9.976;2022-07-06T09:18:54;16.60;13.40
14749;DHT22;7466;53.574;9.976;2022-07-06T09:21:27;16.60;5.10
14749;DHT22;7466;53.574;9.976;2022-07-06T09:23:56;16.70;25.20
14749;DHT22;7466;53.574;9.976;2022-07-06T09:26:24;16.60;18.60
14749;DHT22;7466;53.574;9.976;2022-07-06T09:28:51;16.50;5.00
14749;DHT22;7466;53.574;9.976;2022-07-06T09:31:18;16.60;7.70
14749;DHT22;7466;53.574;9.976;2022-07-06T09:34:04;16.80;1.00
14749;DHT22;7466;53.574;9.976;2022-07-06T09:36:41;16.60;1.00
14749;DHT22;7466;53.574;9.976;2022-07-06T09:39:19;16.90;1.00
14749;DHT22;7466;53.574;9.976;2022-07-06T09:41:46;17.30;1.00
14749;DHT22;7466;53.574;9.976;2022-07-06T09:44:18;17.80;1.00
14749;DHT22;7466;53.574;9.976;2022-07-06T09:46:46;18.00;1.00
14749;DHT22;7466;53.574;9.976;2022-07-06T09:49:17;18.10;1.00
14749;DHT22;7466;53.574;9.976;2022-07-06T09:51:46;18.20;1.00
14749;DHT22;7466;53.574;9.976;2022-07-06T09:54:14;18.40;1.00
14749;DHT22;7466;53.574;9.976;2022-07-06T09:56:43;18.50;1.00
14749;DHT22;7466;53.574;9.976;2022-07-06T09:59:15;18.40;1.00
14749;DHT22;7466;53.574;9.976;2022-07-06T10:01:43;18.40;1.00
14749;DHT22;7466;53.574;9.976;2022-07-06T10:04:12;18.80;1.00
14749;DHT22;7466;53.574;9.976;2022-07-06T10:06:41;19.00;1.00
14749;DHT22;7466;53.574;9.976;2022-07-06T10:09:10;19.10;1.00
14749;DHT22;7466;53.574;9.976;2022-07-06T10:11:39;19.20;1.00
14749;DHT22;7466;53.574;9.976;2022-07-06T10:14:07;19.20;1.00
14749;DHT22;7466;53.574;9.976;2022-07-06T10:16:36;19.20;1.00
14749;DHT22;7466;53.574;9.976;2022-07-06T10:19:05;19.10;1.00
14749;DHT22;7466;53.574;9.976;2022-07-06T10:21:35;18.60;1.00
14749;DHT22;7466;53.574;9.976;2022-07-06T10:24:03;18.20;1.00
14749;DHT22;7466;53.574;9.976;2022-07-06T10:26:36;17.40;1.00
14749;DHT22;7466;53.574;9.976;2022-07-06T10:29:04;16.70;1.00
14749;DHT22;7466;53.574;9.976;2022-07-06T10:31:32;16.50;1.00
14749;DHT22;7466;53.574;9.976;2022-07-06T10:34:01;16.50;1.00
14749;DHT22;7466;53.574;9.976;2022-07-06T10:36:28;16.10;1.00
14749;DHT22;7466;53.574;9.976;2022-07-06T10:38:56;15.70;1.00
14749;DHT22;7466;53.574;9.976;2022-07-06T10:41:43;15.70;1.00
14749;DHT22;7466;53.574;9.976;2022-07-06T10:44:16;15.40;1.00
14749;DHT22;7466;53.574;9.976;2022-07-06T10:46:52;15.30;26.50
14749;DHT22;7466;53.574;9.976;2022-07-06T10:49:22;15.40;31.70
14749;DHT22;7466;53.574;9.976;2022-07-06T10:51:49;15.30;54.70
14749;DHT22;7466;53.574;9.976;2022-07-06T10:54:18;15.40;86.80
14749;DHT22;7466;53.574;9.976;2022-07-06T10:56:48;15.50;99.90
14749;DHT22;7466;53.574;9.976;2022-07-06T10:59:16;15.70;91.80
14749;DHT22;7466;53.574;9.976;2022-07-06T11:02:11;15.80;85.50
14749;DHT22;7466;53.574;9.976;2022-07-06T11:04:39;15.90;49.50
14749;DHT22;7466;53.574;9.976;2022-07-06T11:07:10;15.90;59.00
14749;DHT22;7466;53.574;9.976;2022-07-06T11:09:38;16.10;59.60
14749;DHT22;7466;53.574;9.976;2022-07-06T11:12:18;16.30;55.10
14749;DHT22;7466;53.574;9.976;2022-07-06T11:14:46;16.40;30.20
14749;DHT22;7466;53.574;9.976;2022-07-06T11:17:14;16.60;16.30
14749;DHT22;7466;53.574;9.976;2022-07-06T11:19:48;17.00;3.40
14749;DHT22;7466;53.574;9.976;2022-07-06T11:22:17;17.20;1.00
14749;DHT22;7466;53.574;9.976;2022-07-06T11:24:45;17.10;1.00
14749;DHT22;7466;53.574;9.976;2022-07-06T11:27:13;17.30;1.00
14749;DHT22;7466;53.574;9.976;2022-07-06T11:29:41;17.60;1.00
14749;DHT22;7466;53.574;9.976;2022-07-06T11:32:11;18.40;1.00
14749;DHT22;7466;53.574;9.976;2022-07-06T11:34:41;18.20;1.00
14749;DHT22;7466;53.574;9.976;2022-07-06T11:37:10;18.30;1.00
14749;DHT22;7466;53.574;9.976;2022-07-06T11:39:38;18.00;1.00
14749;DHT22;7466;53.574;9.976;2022-07-06T11:42:07;17.70;1.00
14749;DHT22;7466;53.574;9.976;2022-07-06T11:44:37;17.50;1.00
14749;DHT22;7466;53.574;9.976;2022-07-06T11:47:07;17.30;1.00
14749;DHT22;7466;53.574;9.976;2022-07-06T11:49:35;17.60;1.00
14749;DHT22;7466;53.574;9.976;2022-07-06T11:52:06;17.60;1.00
14749;DHT22;7466;53.574;9.976;2022-07-06T11:54:33;17.90;1.00
14749;DHT22;7466;53.574;9.976;2022-07-06T11:57:00;18.20;1.00
14749;DHT22;7466;53.574;9.976;2022-07-06T11:59:31;18.60;1.00
14749;DHT22;7466;53.574;9.976;2022-07-06T12:02:02;19.20;1.00
14749;DHT22;7466;53.574;9.976;2022-07-06T12:04:33;19.60;1.00
14749;DHT22;7466;53.574;9.976;2022-07-06T12:07:00;19.90;1.00
14749;DHT22;7466;53.574;9.976;2022-07-06T12:09:30;19.40;1.00
14749;DHT22;7466;53.574;9.976;2022-07-06T12:11:57;19.50;1.00
14749;DHT22;7466;53.574;9.976;2022-07-06T12:14:28;19.90;1.00
14749;DHT22;7466;53.574;9.976;2022-07-06T12:16:55;20.30;1.00
14749;DHT22;7466;53.574;9.976;2022-07-06T12:19:23;20.60;1.00
14749;DHT22;7466;53.574;9.976;2022-07-06T12:21:51;20.90;1.00
14749;DHT22;7466;53.574;9.976;2022-07-06T12:24:21;20.80;1.00
14749;DHT22;7466;53.574;9.976;2022-07-06T12:26:52;21.00;1.00
14749;DHT22;7466;53.574;9.976;2022-07-06T12:29:20;21.20;99.90
14749;DHT22;7466;53.574;9.976;2022-07-06T12:31:50;21.80;99.90
14749;DHT22;7466;53.574;9.976;2022-07-06T12:34:18;21.70;99.90
14749;DHT22;7466;53.574;9.976;2022-07-06T12:36:46;21.40;1.00
14749;DHT22;7466;53.574;9.976;2022-07-06T12:39:27;21.40;1.00
14749;DHT22;7466;53.574;9.976;2022-07-06T12:41:56;21.20;1.00
14749;DHT22;7466;53.574;9.976;2022-07-06T12:44:27;21.00;1.00
14749;DHT22;7466;53.574;9.976;2022-07-06T12:47:03;20.70;1.00
14749;DHT22;7466;53.574;9.976;2022-07-06T12:49:31;21.30;1.00
14749;DHT22;7466;53.574;9.976;2022-07-06T12:52:00;20.90;1.00
14749;DHT22;7466;53.574;9.976;2022-07-06T12:54:31;21.10;1.00
14749;DHT22;7466;53.574;9.976;2022-07-06T12:57:11;21.00;1.00
14749;DHT22;7466;53.574;9.976;2022-07-06T12:59:43;20.50;1.00
14749;DHT22;7466;53.574;9.976;2022-07-06T13:02:17;20.70;1.00
14749;DHT22;7466;53.574;9.976;2022-07-06T13:04:55;20.30;1.00
14749;DHT22;7466;53.574;9.976;2022-07-06T13:07:22;20.80;1.00
14749;DHT22;7466;53.574;9.976;2022-07-06T13:09:51;21.60;1.00
14749;DHT22;7466;53.574;9.976;2022-07-06T13:12:18;22.70;1.00
14749;DHT22;7466;53.574;9.976;2022-07-06T13:14:45;22.90;1.00
14749;DHT22;7466;53.574;9.976;2022-07-06T13:17:12;23.40;1.00
14749;DHT22;7466;53.574;9.976;2022-07-06T13:19:42;22.80;1.00
14749;DHT22;7466;53.574;9.976;2022-07-06T13:22:10;22.10;1.00
14749;DHT22;7466;53.574;9.976;2022-07-06T13:24:37;22.80;1.00
14749;DHT22;7466;53.574;9.976;2022-07-06T13:27:06;24.00;1.00
14749;DHT22;7466;53.574;9.976;2022-07-06T13:29:34;23.30;1.00
14749;DHT22;7466;53.574;9.976;2022-07-06T13:32:00;22.90;1.00
14749;DHT22;7466;53.574;9.976;2022-07-06T13:34:27;22.00;1.00
14749;DHT22;7466;53.574;9.976;2022-07-06T13:36:54;22.50;1.00
14749;DHT22;7466;53.574;9.976;2022-07-06T13:39:21;23.80;1.00
14749;DHT22;7466;53.574;9.976;2022-07-06T13:41:49;25.10;1.00
14749;DHT22;7466;53.574;9.976;2022-07-06T13:44:17;25.60;1.00
14749;DHT22;7466;53.574;9.976;2022-07-06T13:46:44;26.60;1.00
14749;DHT22;7466;53.574;9.976;2022-07-06T13:49:11;27.60;1.00
14749;DHT22;7466;53.574;9.976;2022-07-06T13:51:38;27.40;1.00
14749;DHT22;7466;53.574;9.976;2022-07-06T13:54:05;26.80;1.00
14749;DHT22;7466;53.574;9.976;2022-07-06T13:56:32;26.40;1.00
14749;DHT22;7466;53.574;9.976;2022-07-06T13:58:59;27.40;1.00
14749;DHT22;7466;53.574;9.976;2022-07-06T14:01:28;27.70;1.00
14749;DHT22;7466;53.574;9.976;2022-07-06T14:03:56;28.50;1.00
14749;DHT22;7466;53.574;9.976;2022-07-06T14:06:23;28.40;1.00
14749;DHT22;7466;53.574;9.976;2022-07-06T14:08:50;28.30;1.00
14749;DHT22;7466;53.574;9.976;2022-07-06T14:11:17;28.20;1.00
14749;DHT22;7466;53.574;9.976;2022-07-06T14:13:44;28.20;1.00
14749;DHT22;7466;53.574;9.976;2022-07-06T14:16:11;27.80;1.00
14749;DHT22;7466;53.574;9.976;2022-07-06T14:18:39;27.80;1.00
14749;DHT22;7466;53.574;9.976;2022-07-06T14:21:06;27.70;1.00
14749;DHT22;7466;53.574;9.976;2022-07-06T14:23:33;27.20;1.00
14749;DHT22;7466;53.574;9.976;2022-07-06T14:26:00;26.20;1.00
14749;DHT22;7466;53.574;9.976;2022-07-06T14:28:27;26.50;1.00
14749;DHT22;7466;53.574;9.976;2022-07-06T14:30:54;26.00;1.00
14749;DHT22;7466;53.574;9.976;2022-07-06T14:33:21;25.00;1.00
14749;DHT22;7466;53.574;9.976;2022-07-06T14:35:50;24.10;1.00
14749;DHT22;7466;53.574;9.976;2022-07-06T14:38:18;24.00;1.00
14749;DHT22;7466;53.574;9.976;2022-07-06T14:40:46;22.60;1.00
14749;DHT22;7466;53.574;9.976;2022-07-06T14:43:14;22.20;1.00
14749;DHT22;7466;53.574;9.976;2022-07-06T14:45:43;21.20;1.00
14749;DHT22;7466;53.574;9.976;2022-07-06T14:48:10;21.60;1.00
14749;DHT22;7466;53.574;9.976;2022-07-06T14:50:37;22.30;1.00
14749;DHT22;7466;53.574;9.976;2022-07-06T14:53:05;23.50;1.00
14749;DHT22;7466;53.574;9.976;2022-07-06T14:55:31;24.20;1.00
14749;DHT22;7466;53.574;9.976;2022-07-06T14:57:58;25.50;1.00
14749;DHT22;7466;53.574;9.976;2022-07-06T15:00:25;26.60;1.00
14749;DHT22;7466;53.574;9.976;2022-07-06T15:02:52;25.90;1.00
14749;DHT22;7466;53.574;9.976;2022-07-06T15:05:19;26.90;1.00
14749;DHT22;7466;53.574;9.976;2022-07-06T15:07:46;27.00;1.00
14749;DHT22;7466;53.574;9.976;2022-07-06T15:10:14;28.50;1.00
14749;DHT22;7466;53.574;9.976;2022-07-06T15:12:42;29.10;1.00
14749;DHT22;7466;53.574;9.976;2022-07-06T15:15:10;27.70;1.00
14749;DHT22;7466;53.574;9.976;2022-07-06T15:17:37;28.60;1.00
14749;DHT22;7466;53.574;9.976;2022-07-06T15:20:04;27.00;1.00
14749;DHT22;7466;53.574;9.976;2022-07-06T15:22:31;25.50;1.00
14749;DHT22;7466;53.574;9.976;2022-07-06T15:25:01;25.70;1.00
14749;DHT22;7466;53.574;9.976;2022-07-06T15:27:30;24.70;1.00
14749;DHT22;7466;53.574;9.976;2022-07-06T15:29:56;23.40;1.00
14749;DHT22;7466;53.574;9.976;2022-07-06T15:32:23;22.80;1.00
14749;DHT22;7466;53.574;9.976;2022-07-06T15:34:50;21.70;1.00
14749;DHT22;7466;53.574;9.976;2022-07-06T15:37:17;21.30;1.00
14749;DHT22;7466;53.574;9.976;2022-07-06T15:39:44;20.80;1.00
14749;DHT22;7466;53.574;9.976;2022-07-06T15:42:11;20.60;99.90
14749;DHT22;7466;53.574;9.976;2022-07-06T15:44:39;20.90;99.90
14749;DHT22;7466;53.574;9.976;2022-07-06T15:47:07;20.80;99.90
14749;DHT22;7466;53.574;9.976;2022-07-06T15:49:34;21.40;99.90
14749;DHT22;7466;53.574;9.976;2022-07-06T15:52:01;21.70;1.00
14749;DHT22;7466;53.574;9.976;2022-07-06T15:54:29;23.00;86.90
14749;DHT22;7466;53.574;9.976;2022-07-06T15:56:56;24.80;19.80